createdAt,value
2017-03-07T00:00:27.788Z,22.1
2017-03-07T00:01:08.492Z,22.17
2017-03-07T00:01:49.127Z,22.19
2017-03-07T00:02:29.753Z,22.13
2017-03-07T00:03:10.388Z,22.04
2017-03-07T00:03:51.013Z,22.14
2017-03-07T00:04:31.712Z,22.17
2017-03-07T00:05:12.369Z,22.16
2017-03-07T00:05:53.013Z,22.16
2017-03-07T00:06:33.651Z,22.19
2017-03-07T00:07:14.278Z,22.14
2017-03-07T00:07:54.931Z,22.16
2017-03-07T00:08:35.571Z,22.12
2017-03-07T00:09:16.217Z,22.14
2017-03-07T00:09:56.861Z,22.06
2017-03-07T00:10:37.493Z,22.1
2017-03-07T00:11:18.147Z,22.13
2017-03-07T00:11:58.786Z,22.09
2017-03-07T00:12:39.511Z,22.02
2017-03-07T00:13:20.252Z,22.04
2017-03-07T00:14:00.934Z,21.99
2017-03-07T00:14:41.581Z,22.06
2017-03-07T00:15:22.219Z,22.02
2017-03-07T00:16:02.854Z,22.12
2017-03-07T00:16:43.514Z,22.01
2017-03-07T00:17:24.171Z,22.04
2017-03-07T00:18:04.816Z,21.91
2017-03-07T00:18:45.460Z,21.95
2017-03-07T00:19:26.115Z,21.99
2017-03-07T00:20:06.755Z,21.95
2017-03-07T00:20:47.391Z,21.94
2017-03-07T00:21:28.042Z,21.95
2017-03-07T00:22:08.728Z,21.99
2017-03-07T00:22:49.370Z,21.97
2017-03-07T00:23:30.010Z,22.02
2017-03-07T00:24:10.664Z,22.07
2017-03-07T00:24:51.292Z,22.04
2017-03-07T00:25:31.938Z,21.97
2017-03-07T00:26:12.596Z,22.09
2017-03-07T00:26:53.225Z,22.02
2017-03-07T00:27:33.869Z,22.1
2017-03-07T00:28:14.541Z,22.04
2017-03-07T00:28:55.176Z,21.97
2017-03-07T00:29:35.825Z,22.07
2017-03-07T00:30:16.482Z,22.04
2017-03-07T00:30:57.133Z,22.06
2017-03-07T00:31:38.311Z,21.97
2017-03-07T00:32:18.936Z,21.98
2017-03-07T00:32:59.573Z,21.92
2017-03-07T00:33:40.247Z,21.88
2017-03-07T00:34:20.876Z,21.92
2017-03-07T00:35:01.516Z,21.92
2017-03-07T00:35:42.238Z,21.97
2017-03-07T00:36:22.884Z,21.94
2017-03-07T00:37:03.514Z,21.95
2017-03-07T00:37:44.165Z,21.98
2017-03-07T00:38:24.806Z,21.97
2017-03-07T00:39:05.440Z,21.92
2017-03-07T00:39:46.075Z,21.95
2017-03-07T00:40:26.724Z,21.92
2017-03-07T00:41:07.353Z,21.98
2017-03-07T00:41:47.995Z,21.91
2017-03-07T00:42:28.638Z,21.92
2017-03-07T00:43:09.282Z,21.92
2017-03-07T00:43:49.934Z,21.97
2017-03-07T00:44:30.620Z,21.95
2017-03-07T00:45:11.282Z,21.91
2017-03-07T00:45:51.916Z,21.95
2017-03-07T00:46:32.629Z,22.02
2017-03-07T00:47:13.263Z,21.98
2017-03-07T00:47:53.907Z,21.94
2017-03-07T00:48:34.586Z,22.01
2017-03-07T00:49:15.261Z,21.94
2017-03-07T00:49:56.005Z,21.91
2017-03-07T00:50:36.638Z,21.85
2017-03-07T00:51:17.292Z,21.91
2017-03-07T00:51:57.934Z,21.92
2017-03-07T00:52:38.569Z,21.92
2017-03-07T00:53:19.202Z,21.91
2017-03-07T00:53:59.846Z,21.88
2017-03-07T00:54:40.500Z,21.85
2017-03-07T00:55:21.169Z,21.85
2017-03-07T00:56:01.807Z,21.92
2017-03-07T00:56:42.472Z,21.88
2017-03-07T00:57:23.147Z,21.97
2017-03-07T00:58:03.793Z,21.95
2017-03-07T00:58:44.430Z,21.95
2017-03-07T00:59:25.079Z,21.94
2017-03-07T01:00:05.719Z,21.98
2017-03-07T01:00:46.349Z,21.91
2017-03-07T01:01:27.003Z,21.98
2017-03-07T01:02:07.640Z,21.94
2017-03-07T01:02:48.286Z,21.88
2017-03-07T01:03:28.936Z,21.99
2017-03-07T01:04:09.581Z,21.98
2017-03-07T01:04:50.212Z,21.95
2017-03-07T01:05:30.873Z,21.92
2017-03-07T01:06:11.519Z,21.95
2017-03-07T01:06:52.165Z,21.97
2017-03-07T01:07:32.813Z,21.92
2017-03-07T01:08:13.461Z,21.94
2017-03-07T01:08:54.103Z,21.97
2017-03-07T01:09:34.764Z,21.92
2017-03-07T01:10:15.404Z,21.99
2017-03-07T01:10:56.041Z,21.97
2017-03-07T01:11:36.680Z,22.02
2017-03-07T01:12:17.324Z,21.97
2017-03-07T01:12:57.988Z,21.94
2017-03-07T01:13:38.665Z,21.91
2017-03-07T01:14:19.294Z,21.88
2017-03-07T01:14:59.936Z,21.83
2017-03-07T01:15:40.564Z,21.91
2017-03-07T01:16:21.208Z,21.88
2017-03-07T01:17:01.843Z,21.83
2017-03-07T01:17:42.484Z,21.91
2017-03-07T01:18:23.117Z,21.92
2017-03-07T01:19:03.757Z,21.91
2017-03-07T01:19:44.400Z,21.91
2017-03-07T01:20:25.046Z,21.91
2017-03-07T01:21:05.768Z,21.94
2017-03-07T01:21:46.418Z,21.85
2017-03-07T01:22:27.079Z,21.81
2017-03-07T01:23:07.727Z,21.88
2017-03-07T01:23:48.377Z,21.72
2017-03-07T01:24:29.016Z,21.76
2017-03-07T01:25:09.659Z,21.83
2017-03-07T01:25:50.317Z,21.78
2017-03-07T01:26:30.946Z,21.82
2017-03-07T01:27:11.600Z,21.83
2017-03-07T01:27:52.242Z,21.82
2017-03-07T01:28:32.917Z,21.76
2017-03-07T01:29:13.608Z,21.91
2017-03-07T01:29:54.283Z,21.79
2017-03-07T01:30:34.922Z,21.9
2017-03-07T01:31:15.558Z,21.85
2017-03-07T01:31:56.299Z,21.79
2017-03-07T01:32:36.924Z,21.88
2017-03-07T01:33:17.575Z,21.78
2017-03-07T01:33:58.256Z,21.78
2017-03-07T01:34:38.885Z,21.85
2017-03-07T01:35:19.617Z,21.78
2017-03-07T01:36:00.281Z,21.76
2017-03-07T01:36:40.947Z,21.78
2017-03-07T01:37:21.589Z,21.81
2017-03-07T01:38:02.235Z,21.64
2017-03-07T01:38:42.868Z,21.72
2017-03-07T01:39:23.524Z,21.69
2017-03-07T01:40:04.157Z,21.72
2017-03-07T01:40:44.786Z,21.64
2017-03-07T01:41:25.434Z,21.69
2017-03-07T01:42:06.097Z,21.67
2017-03-07T01:42:46.749Z,21.76
2017-03-07T01:43:27.401Z,21.78
2017-03-07T01:44:08.045Z,21.81
2017-03-07T01:44:48.682Z,21.79
2017-03-07T01:45:29.372Z,21.82
2017-03-07T01:46:10.003Z,21.82
2017-03-07T01:46:50.655Z,21.79
2017-03-07T01:47:31.361Z,21.83
2017-03-07T01:48:11.999Z,21.74
2017-03-07T01:48:52.648Z,21.72
2017-03-07T01:49:33.296Z,21.88
2017-03-07T01:50:13.951Z,21.76
2017-03-07T01:50:54.603Z,21.78
2017-03-07T01:51:35.245Z,21.88
2017-03-07T01:52:15.920Z,21.81
2017-03-07T01:52:56.542Z,21.82
2017-03-07T01:53:37.175Z,21.81
2017-03-07T01:54:17.812Z,21.76
2017-03-07T01:54:58.463Z,21.81
2017-03-07T01:55:39.178Z,21.88
2017-03-07T01:56:19.822Z,21.72
2017-03-07T01:57:00.482Z,21.72
2017-03-07T01:57:41.123Z,21.79
2017-03-07T01:58:21.767Z,21.76
2017-03-07T01:59:02.431Z,21.72
2017-03-07T01:59:43.178Z,21.88
2017-03-07T02:00:23.806Z,21.78
2017-03-07T02:01:04.443Z,21.75
2017-03-07T02:01:45.097Z,21.82
2017-03-07T02:02:25.757Z,21.83
2017-03-07T02:03:06.418Z,21.88
2017-03-07T02:03:47.040Z,21.85
2017-03-07T02:04:27.685Z,21.81
2017-03-07T02:05:08.412Z,21.83
2017-03-07T02:05:49.059Z,21.9
2017-03-07T02:06:29.686Z,21.83
2017-03-07T02:07:10.320Z,21.92
2017-03-07T02:07:50.950Z,21.92
2017-03-07T02:08:31.583Z,21.94
2017-03-07T02:09:12.226Z,21.81
2017-03-07T02:09:52.886Z,21.82
2017-03-07T02:10:33.537Z,21.82
2017-03-07T02:11:14.177Z,21.91
2017-03-07T02:11:54.807Z,21.91
2017-03-07T02:12:35.539Z,21.76
2017-03-07T02:13:16.171Z,21.81
2017-03-07T02:13:56.799Z,21.83
2017-03-07T02:14:37.437Z,21.88
2017-03-07T02:15:18.092Z,21.94
2017-03-07T02:15:58.724Z,21.91
2017-03-07T02:16:39.352Z,21.76
2017-03-07T02:17:20.003Z,21.83
2017-03-07T02:18:00.631Z,21.82
2017-03-07T02:18:41.270Z,21.79
2017-03-07T02:19:21.963Z,21.81
2017-03-07T02:20:02.594Z,21.85
2017-03-07T02:20:43.231Z,21.9
2017-03-07T02:21:23.936Z,21.82
2017-03-07T02:22:04.581Z,21.85
2017-03-07T02:22:45.204Z,21.81
2017-03-07T02:23:25.866Z,21.88
2017-03-07T02:24:06.509Z,21.9
2017-03-07T02:24:47.146Z,21.81
2017-03-07T02:25:27.865Z,21.94
2017-03-07T02:26:08.513Z,21.82
2017-03-07T02:26:49.157Z,21.82
2017-03-07T02:27:29.814Z,21.81
2017-03-07T02:28:10.456Z,21.82
2017-03-07T02:28:51.119Z,21.83
2017-03-07T02:29:31.820Z,21.91
2017-03-07T02:30:12.454Z,21.82
2017-03-07T02:30:53.079Z,21.79
2017-03-07T02:31:33.731Z,21.92
2017-03-07T02:32:14.377Z,21.95
2017-03-07T02:32:55.018Z,21.9
2017-03-07T02:33:35.664Z,21.9
2017-03-07T02:34:16.290Z,21.82
2017-03-07T02:34:56.935Z,21.85
2017-03-07T02:35:37.587Z,21.9
2017-03-07T02:36:18.222Z,21.76
2017-03-07T02:36:58.873Z,21.88
2017-03-07T02:37:39.510Z,21.88
2017-03-07T02:38:20.152Z,21.78
2017-03-07T02:39:00.811Z,21.82
2017-03-07T02:39:41.474Z,21.76
2017-03-07T02:40:22.184Z,21.83
2017-03-07T02:41:02.829Z,21.79
2017-03-07T02:41:43.471Z,21.85
2017-03-07T02:42:24.103Z,21.82
2017-03-07T02:43:04.750Z,21.81
2017-03-07T02:43:45.383Z,21.85
2017-03-07T02:44:26.099Z,21.79
2017-03-07T02:45:06.783Z,21.71
2017-03-07T02:45:47.419Z,21.76
2017-03-07T02:46:28.056Z,21.81
2017-03-07T02:47:08.683Z,21.83
2017-03-07T02:47:49.310Z,21.78
2017-03-07T02:48:30.003Z,21.76
2017-03-07T02:49:10.641Z,21.85
2017-03-07T02:49:51.270Z,21.81
2017-03-07T02:50:31.909Z,21.78
2017-03-07T02:51:12.559Z,21.78
2017-03-07T02:51:53.186Z,21.71
2017-03-07T02:52:33.824Z,21.76
2017-03-07T02:53:14.447Z,21.85
2017-03-07T02:53:55.079Z,21.83
2017-03-07T02:54:35.723Z,21.79
2017-03-07T02:55:16.881Z,21.88
2017-03-07T02:55:57.508Z,21.81
2017-03-07T02:56:38.129Z,21.78
2017-03-07T02:57:18.757Z,21.83
2017-03-07T02:57:59.417Z,21.88
2017-03-07T02:58:40.047Z,21.76
2017-03-07T02:59:20.677Z,21.69
2017-03-07T03:00:01.360Z,21.83
2017-03-07T03:00:41.997Z,21.78
2017-03-07T03:01:22.620Z,21.78
2017-03-07T03:02:03.251Z,21.79
2017-03-07T03:02:43.884Z,21.81
2017-03-07T03:03:24.521Z,21.82
2017-03-07T03:04:05.146Z,21.75
2017-03-07T03:04:45.775Z,21.66
2017-03-07T03:05:26.407Z,21.64
2017-03-07T03:06:07.053Z,21.76
2017-03-07T03:06:47.685Z,21.76
2017-03-07T03:07:28.432Z,21.78
2017-03-07T03:08:09.065Z,21.83
2017-03-07T03:08:49.697Z,21.67
2017-03-07T03:09:30.325Z,21.76
2017-03-07T03:10:10.958Z,21.79
2017-03-07T03:10:51.599Z,21.75
2017-03-07T03:11:32.248Z,21.71
2017-03-07T03:12:12.931Z,21.69
2017-03-07T03:12:53.563Z,21.76
2017-03-07T03:13:34.228Z,21.79
2017-03-07T03:14:14.869Z,21.79
2017-03-07T03:14:55.568Z,21.72
2017-03-07T03:15:36.226Z,21.72
2017-03-07T03:16:16.861Z,21.78
2017-03-07T03:16:57.503Z,21.79
2017-03-07T03:17:38.137Z,21.81
2017-03-07T03:18:18.784Z,21.81
2017-03-07T03:18:59.423Z,21.81
2017-03-07T03:19:40.054Z,21.76
2017-03-07T03:20:20.681Z,21.75
2017-03-07T03:21:01.305Z,21.75
2017-03-07T03:21:41.943Z,21.75
2017-03-07T03:22:22.577Z,21.71
2017-03-07T03:23:03.220Z,21.66
2017-03-07T03:23:43.857Z,21.69
2017-03-07T03:24:24.496Z,21.67
2017-03-07T03:25:05.133Z,21.64
2017-03-07T03:25:45.763Z,21.69
2017-03-07T03:26:26.423Z,21.75
2017-03-07T03:27:07.163Z,21.69
2017-03-07T03:27:47.783Z,21.69
2017-03-07T03:28:28.437Z,21.75
2017-03-07T03:29:09.093Z,21.79
2017-03-07T03:29:49.725Z,21.71
2017-03-07T03:31:27.632Z,21.72
2017-03-07T03:32:08.268Z,21.61
2017-03-07T03:32:48.894Z,21.64
2017-03-07T03:33:29.537Z,21.69
2017-03-07T03:34:10.202Z,21.76
2017-03-07T03:34:50.922Z,21.76
2017-03-07T03:35:31.582Z,21.71
2017-03-07T03:36:12.225Z,21.82
2017-03-07T03:36:52.879Z,21.69
2017-03-07T03:37:33.530Z,21.74
2017-03-07T03:38:14.177Z,21.64
2017-03-07T03:38:54.849Z,21.72
2017-03-07T03:39:35.484Z,21.71
2017-03-07T03:40:16.121Z,21.75
2017-03-07T03:40:56.824Z,21.81
2017-03-07T03:41:37.474Z,21.75
2017-03-07T03:42:18.096Z,21.66
2017-03-07T03:43:09.356Z,21.74
2017-03-07T03:43:49.989Z,21.74
2017-03-07T03:44:30.671Z,21.69
2017-03-07T03:45:11.313Z,21.72
2017-03-07T03:45:51.942Z,21.69
2017-03-07T03:46:32.613Z,21.67
2017-03-07T03:47:13.234Z,21.71
2017-03-07T03:47:53.892Z,21.63
2017-03-07T03:48:34.527Z,21.61
2017-03-07T03:49:15.155Z,21.69
2017-03-07T03:49:55.798Z,21.67
2017-03-07T03:50:36.420Z,21.59
2017-03-07T03:51:17.056Z,21.59
2017-03-07T03:51:57.685Z,21.63
2017-03-07T03:52:38.405Z,21.59
2017-03-07T03:53:19.032Z,21.66
2017-03-07T03:53:59.676Z,21.66
2017-03-07T03:54:40.319Z,21.66
2017-03-07T03:55:20.949Z,21.69
2017-03-07T03:56:01.585Z,21.61
2017-03-07T03:56:42.220Z,21.6
2017-03-07T03:57:22.845Z,21.63
2017-03-07T03:58:03.483Z,21.59
2017-03-07T03:58:44.109Z,21.6
2017-03-07T03:59:24.747Z,21.66
2017-03-07T04:00:05.375Z,21.64
2017-03-07T04:00:46.004Z,21.6
2017-03-07T04:01:26.645Z,21.59
2017-03-07T04:02:07.277Z,21.54
2017-03-07T04:02:47.911Z,21.57
2017-03-07T04:03:28.538Z,21.51
2017-03-07T04:04:09.163Z,21.59
2017-03-07T04:04:49.794Z,21.54
2017-03-07T04:05:30.410Z,21.53
2017-03-07T04:06:11.044Z,21.54
2017-03-07T04:06:51.671Z,21.56
2017-03-07T04:07:32.310Z,21.61
2017-03-07T04:08:12.942Z,21.57
2017-03-07T04:08:53.565Z,21.6
2017-03-07T04:09:34.192Z,21.53
2017-03-07T04:10:14.819Z,21.51
2017-03-07T04:10:55.561Z,21.53
2017-03-07T04:11:36.193Z,21.57
2017-03-07T04:12:16.832Z,21.6
2017-03-07T04:12:57.456Z,21.57
2017-03-07T04:13:38.148Z,21.53
2017-03-07T04:14:18.781Z,21.59
2017-03-07T04:14:59.411Z,21.56
2017-03-07T04:15:40.048Z,21.6
2017-03-07T04:16:20.675Z,21.57
2017-03-07T04:17:01.318Z,21.59
2017-03-07T04:17:42.005Z,21.56
2017-03-07T04:18:22.670Z,21.57
2017-03-07T04:19:03.309Z,21.57
2017-03-07T04:19:43.947Z,21.56
2017-03-07T04:20:24.567Z,21.56
2017-03-07T04:21:05.316Z,21.6
2017-03-07T04:21:45.961Z,21.53
2017-03-07T04:22:26.600Z,21.56
2017-03-07T04:23:07.246Z,21.51
2017-03-07T04:23:47.885Z,21.57
2017-03-07T04:24:28.514Z,21.6
2017-03-07T04:25:09.148Z,21.59
2017-03-07T04:25:49.826Z,21.57
2017-03-07T04:26:30.461Z,21.59
2017-03-07T04:27:11.103Z,21.57
2017-03-07T04:27:51.725Z,21.6
2017-03-07T04:28:32.366Z,21.57
2017-03-07T04:29:13.010Z,21.56
2017-03-07T04:29:53.630Z,21.48
2017-03-07T04:30:34.285Z,21.51
2017-03-07T04:31:14.925Z,21.54
2017-03-07T04:31:55.560Z,21.53
2017-03-07T04:32:36.178Z,21.54
2017-03-07T04:33:16.800Z,21.53
2017-03-07T04:33:57.425Z,21.59
2017-03-07T04:34:38.054Z,21.59
2017-03-07T04:35:18.705Z,21.45
2017-03-07T04:35:59.339Z,21.51
2017-03-07T04:36:39.995Z,21.53
2017-03-07T04:37:20.641Z,21.48
2017-03-07T04:38:01.266Z,21.48
2017-03-07T04:38:41.906Z,21.54
2017-03-07T04:39:22.546Z,21.5
2017-03-07T04:40:03.174Z,21.51
2017-03-07T04:40:43.803Z,21.53
2017-03-07T04:41:24.441Z,21.5
2017-03-07T04:42:05.091Z,21.45
2017-03-07T04:42:45.725Z,21.53
2017-03-07T04:43:26.362Z,21.42
2017-03-07T04:44:06.984Z,21.51
2017-03-07T04:44:47.622Z,21.56
2017-03-07T04:45:28.248Z,21.46
2017-03-07T04:46:08.883Z,21.56
2017-03-07T04:46:49.515Z,21.53
2017-03-07T04:47:30.190Z,21.45
2017-03-07T04:48:10.818Z,21.5
2017-03-07T04:48:51.479Z,21.44
2017-03-07T04:49:32.124Z,21.5
2017-03-07T04:50:12.837Z,21.53
2017-03-07T04:50:53.470Z,21.44
2017-03-07T04:51:34.107Z,21.44
2017-03-07T04:52:14.741Z,21.56
2017-03-07T04:52:55.375Z,21.51
2017-03-07T04:53:36.048Z,21.39
2017-03-07T04:54:16.677Z,21.44
2017-03-07T04:54:57.312Z,21.39
2017-03-07T04:55:37.941Z,21.57
2017-03-07T04:56:18.614Z,21.42
2017-03-07T04:56:59.245Z,21.39
2017-03-07T04:57:39.876Z,21.57
2017-03-07T04:58:20.512Z,21.44
2017-03-07T04:59:01.132Z,21.42
2017-03-07T04:59:41.787Z,21.48
2017-03-07T05:00:22.444Z,21.44
2017-03-07T05:01:03.094Z,21.42
2017-03-07T05:01:43.751Z,21.51
2017-03-07T05:02:24.389Z,21.41
2017-03-07T05:03:05.018Z,21.5
2017-03-07T05:03:45.649Z,21.45
2017-03-07T05:04:26.281Z,21.42
2017-03-07T05:05:06.906Z,21.5
2017-03-07T05:05:47.620Z,21.57
2017-03-07T05:06:28.253Z,21.51
2017-03-07T05:07:08.903Z,21.51
2017-03-07T05:07:49.511Z,21.59
2017-03-07T05:08:30.178Z,21.56
2017-03-07T05:09:10.832Z,21.51
2017-03-07T05:09:51.478Z,21.53
2017-03-07T05:10:32.117Z,21.51
2017-03-07T05:11:12.744Z,21.56
2017-03-07T05:11:53.379Z,21.56
2017-03-07T05:12:34.011Z,21.57
2017-03-07T05:13:14.652Z,21.56
2017-03-07T05:13:55.299Z,21.42
2017-03-07T05:14:35.910Z,21.59
2017-03-07T05:15:16.555Z,21.57
2017-03-07T05:15:57.187Z,21.56
2017-03-07T05:16:37.817Z,21.57
2017-03-07T05:17:18.445Z,21.56
2017-03-07T05:17:59.908Z,21.59
2017-03-07T05:18:40.542Z,21.63
2017-03-07T05:19:21.166Z,21.56
2017-03-07T05:20:01.799Z,21.54
2017-03-07T05:20:42.435Z,21.57
2017-03-07T05:21:23.062Z,21.53
2017-03-07T05:22:03.745Z,21.59
2017-03-07T05:22:44.375Z,21.6
2017-03-07T05:23:25.001Z,21.59
2017-03-07T05:24:05.655Z,21.57
2017-03-07T05:24:46.281Z,21.51
2017-03-07T05:25:26.931Z,21.59
2017-03-07T05:26:07.560Z,21.56
2017-03-07T05:26:48.192Z,21.56
2017-03-07T05:27:28.819Z,21.57
2017-03-07T05:28:09.476Z,21.56
2017-03-07T05:28:50.093Z,21.54
2017-03-07T05:29:30.735Z,21.54
2017-03-07T05:30:11.379Z,21.53
2017-03-07T05:30:52.057Z,21.54
2017-03-07T05:31:32.684Z,21.53
2017-03-07T05:32:13.334Z,21.51
2017-03-07T05:32:53.960Z,21.53
2017-03-07T05:33:34.599Z,21.59
2017-03-07T05:34:15.228Z,21.59
2017-03-07T05:34:55.864Z,21.54
2017-03-07T05:35:36.499Z,21.57
2017-03-07T05:36:17.130Z,21.51
2017-03-07T05:36:57.753Z,21.57
2017-03-07T05:37:38.394Z,21.53
2017-03-07T05:38:19.022Z,21.59
2017-03-07T05:38:59.677Z,21.56
2017-03-07T05:39:40.309Z,21.59
2017-03-07T05:40:20.946Z,21.6
2017-03-07T05:41:01.581Z,21.6
2017-03-07T05:41:42.198Z,21.6
2017-03-07T05:42:22.860Z,21.48
2017-03-07T05:43:03.480Z,21.61
2017-03-07T05:43:44.127Z,21.56
2017-03-07T05:44:24.795Z,21.56
2017-03-07T05:45:05.431Z,21.53
2017-03-07T05:45:46.056Z,21.5
2017-03-07T05:46:26.776Z,21.6
2017-03-07T05:47:07.415Z,21.59
2017-03-07T05:47:48.065Z,21.6
2017-03-07T05:48:28.721Z,21.5
2017-03-07T05:49:09.353Z,21.53
2017-03-07T05:49:49.976Z,21.48
2017-03-07T05:50:30.663Z,21.53
2017-03-07T05:51:11.291Z,21.51
2017-03-07T05:51:51.923Z,21.6
2017-03-07T05:52:32.572Z,21.54
2017-03-07T05:53:13.208Z,21.51
2017-03-07T05:53:53.835Z,21.44
2017-03-07T05:54:34.470Z,21.42
2017-03-07T05:55:15.114Z,21.51
2017-03-07T05:55:55.737Z,21.5
2017-03-07T05:56:36.386Z,21.54
2017-03-07T05:57:17.021Z,21.54
2017-03-07T05:57:57.648Z,21.53
2017-03-07T05:58:38.287Z,21.44
2017-03-07T05:59:18.953Z,21.44
2017-03-07T05:59:59.597Z,21.42
2017-03-07T06:00:40.215Z,21.44
2017-03-07T06:01:20.855Z,21.53
2017-03-07T06:02:01.495Z,21.54
2017-03-07T06:02:42.128Z,21.53
2017-03-07T06:03:22.760Z,21.44
2017-03-07T06:04:03.408Z,21.53
2017-03-07T06:04:44.065Z,21.48
2017-03-07T06:05:24.740Z,21.54
2017-03-07T06:06:05.373Z,21.53
2017-03-07T06:06:45.990Z,21.56
2017-03-07T06:07:26.628Z,21.56
2017-03-07T06:08:07.268Z,21.54
2017-03-07T06:08:47.904Z,21.48
2017-03-07T06:09:28.626Z,21.54
2017-03-07T06:10:09.261Z,21.57
2017-03-07T06:10:49.897Z,21.46
2017-03-07T06:11:30.511Z,21.48
2017-03-07T06:12:11.164Z,21.53
2017-03-07T06:12:51.851Z,21.51
2017-03-07T06:13:32.510Z,21.54
2017-03-07T06:14:13.143Z,21.44
2017-03-07T06:14:53.798Z,21.5
2017-03-07T06:15:34.425Z,21.45
2017-03-07T06:16:15.062Z,21.42
2017-03-07T06:16:55.713Z,21.41
2017-03-07T06:17:36.367Z,21.54
2017-03-07T06:18:17.013Z,21.44
2017-03-07T06:18:57.649Z,21.46
2017-03-07T06:19:38.273Z,21.42
2017-03-07T06:20:18.907Z,21.46
2017-03-07T06:20:59.530Z,21.48
2017-03-07T06:21:40.152Z,21.38
2017-03-07T06:22:20.797Z,21.45
2017-03-07T06:23:01.456Z,21.44
2017-03-07T06:23:42.094Z,21.44
2017-03-07T06:24:22.727Z,21.42
2017-03-07T06:25:03.934Z,21.44
2017-03-07T06:25:44.559Z,21.45
2017-03-07T06:26:25.190Z,21.39
2017-03-07T06:27:05.826Z,21.45
2017-03-07T06:27:46.470Z,21.5
2017-03-07T06:28:27.093Z,21.42
2017-03-07T06:29:07.730Z,21.56
2017-03-07T06:29:48.372Z,21.44
2017-03-07T06:30:28.997Z,21.45
2017-03-07T06:31:09.632Z,21.46
2017-03-07T06:31:50.273Z,21.46
2017-03-07T06:32:30.965Z,21.41
2017-03-07T06:33:11.605Z,21.5
2017-03-07T06:33:52.247Z,21.44
2017-03-07T06:34:32.873Z,21.35
2017-03-07T06:35:13.523Z,21.48
2017-03-07T06:35:54.203Z,21.44
2017-03-07T06:36:34.845Z,21.41
2017-03-07T06:37:15.491Z,21.56
2017-03-07T06:37:56.120Z,21.6
2017-03-07T06:38:36.775Z,21.41
2017-03-07T06:39:17.427Z,21.42
2017-03-07T06:39:58.060Z,21.41
2017-03-07T06:40:38.693Z,21.46
2017-03-07T06:41:19.365Z,21.46
2017-03-07T06:41:59.993Z,21.46
2017-03-07T06:42:40.627Z,21.44
2017-03-07T06:43:21.407Z,21.48
2017-03-07T06:44:02.035Z,21.42
2017-03-07T06:44:42.681Z,21.53
2017-03-07T06:45:23.312Z,21.41
2017-03-07T06:46:03.959Z,21.45
2017-03-07T06:46:44.610Z,21.42
2017-03-07T06:47:25.272Z,21.51
2017-03-07T06:48:05.923Z,21.45
2017-03-07T06:48:46.562Z,21.51
2017-03-07T06:49:27.258Z,21.41
2017-03-07T06:50:07.918Z,21.45
2017-03-07T06:50:48.546Z,21.48
2017-03-07T06:51:29.202Z,21.6
2017-03-07T06:52:09.903Z,21.54
2017-03-07T06:52:50.536Z,21.53
2017-03-07T06:53:31.204Z,21.56
2017-03-07T06:54:11.869Z,21.59
2017-03-07T06:54:52.504Z,21.44
2017-03-07T06:55:33.138Z,21.42
2017-03-07T06:56:13.758Z,21.48
2017-03-07T06:56:54.386Z,21.44
2017-03-07T06:57:35.012Z,21.41
2017-03-07T06:58:15.653Z,21.57
2017-03-07T06:58:56.280Z,21.42
2017-03-07T06:59:36.917Z,21.5
2017-03-07T07:00:17.615Z,21.5
2017-03-07T07:00:58.236Z,21.44
2017-03-07T07:01:38.869Z,21.41
2017-03-07T07:02:19.537Z,21.48
2017-03-07T07:03:00.180Z,21.44
2017-03-07T07:03:40.830Z,21.5
2017-03-07T07:04:21.462Z,21.48
2017-03-07T07:05:02.101Z,21.45
2017-03-07T07:05:42.736Z,21.44
2017-03-07T07:06:23.385Z,21.41
2017-03-07T07:07:04.028Z,21.44
2017-03-07T07:07:44.660Z,21.44
2017-03-07T07:08:25.303Z,21.44
2017-03-07T07:09:05.957Z,21.42
2017-03-07T07:09:46.605Z,21.38
2017-03-07T07:10:27.238Z,21.44
2017-03-07T07:11:07.858Z,21.45
2017-03-07T07:11:48.474Z,21.51
2017-03-07T07:12:29.109Z,21.48
2017-03-07T07:13:09.747Z,21.45
2017-03-07T07:13:50.459Z,21.5
2017-03-07T07:14:31.087Z,21.51
2017-03-07T07:15:11.793Z,21.39
2017-03-07T07:15:52.355Z,21.51
2017-03-07T07:16:32.987Z,21.42
2017-03-07T07:17:13.653Z,21.42
2017-03-07T07:17:54.252Z,21.54
2017-03-07T07:18:34.887Z,21.38
2017-03-07T07:19:15.546Z,21.45
2017-03-07T07:19:56.158Z,21.6
2017-03-07T07:20:36.790Z,21.45
2017-03-07T07:21:17.425Z,21.44
2017-03-07T07:21:58.063Z,21.42
2017-03-07T07:22:38.703Z,21.39
2017-03-07T07:23:19.370Z,21.39
2017-03-07T07:24:00.017Z,21.38
2017-03-07T07:24:40.663Z,21.35
2017-03-07T07:25:21.295Z,21.44
2017-03-07T07:26:01.925Z,21.41
2017-03-07T07:26:42.613Z,21.48
2017-03-07T07:27:23.245Z,21.57
2017-03-07T07:28:03.893Z,21.48
2017-03-07T07:28:44.569Z,21.44
2017-03-07T07:29:25.194Z,21.39
2017-03-07T07:30:05.821Z,21.42
2017-03-07T07:30:46.446Z,21.44
2017-03-07T07:31:27.153Z,21.42
2017-03-07T07:32:07.844Z,21.44
2017-03-07T07:32:48.464Z,21.35
2017-03-07T07:33:29.097Z,21.38
2017-03-07T07:34:09.715Z,21.36
2017-03-07T07:34:50.364Z,21.46
2017-03-07T07:35:30.996Z,21.41
2017-03-07T07:36:11.620Z,21.5
2017-03-07T07:36:52.298Z,21.42
2017-03-07T07:37:32.920Z,21.46
2017-03-07T07:38:13.567Z,21.38
2017-03-07T07:38:54.197Z,21.41
2017-03-07T07:39:34.861Z,21.42
2017-03-07T07:40:15.497Z,21.48
2017-03-07T07:40:56.138Z,21.44
2017-03-07T07:41:36.775Z,21.5
2017-03-07T07:42:17.408Z,21.42
2017-03-07T07:42:58.039Z,21.46
2017-03-07T07:43:38.698Z,21.41
2017-03-07T07:44:19.346Z,21.42
2017-03-07T07:44:59.994Z,21.46
2017-03-07T07:45:40.663Z,21.42
2017-03-07T07:46:21.301Z,21.44
2017-03-07T07:47:01.960Z,21.51
2017-03-07T07:47:42.605Z,21.46
2017-03-07T07:48:23.247Z,21.46
2017-03-07T07:49:03.872Z,21.46
2017-03-07T07:49:45.080Z,21.54
2017-03-07T07:50:25.791Z,21.42
2017-03-07T07:51:06.510Z,21.5
2017-03-07T07:51:47.152Z,21.44
2017-03-07T07:52:27.822Z,21.44
2017-03-07T07:53:08.475Z,21.34
2017-03-07T07:53:49.101Z,21.42
2017-03-07T07:54:29.766Z,21.32
2017-03-07T07:55:10.406Z,21.41
2017-03-07T07:55:51.166Z,21.34
2017-03-07T07:56:31.710Z,21.39
2017-03-07T07:57:12.396Z,21.41
2017-03-07T07:57:53.059Z,21.36
2017-03-07T07:58:33.702Z,21.48
2017-03-07T07:59:14.328Z,21.42
2017-03-07T07:59:54.972Z,21.42
2017-03-07T08:00:35.629Z,21.41
2017-03-07T08:01:16.276Z,21.44
2017-03-07T08:01:56.905Z,21.39
2017-03-07T08:02:37.535Z,21.42
2017-03-07T08:03:18.163Z,21.44
2017-03-07T08:03:59.468Z,21.46
2017-03-07T08:04:40.109Z,21.45
2017-03-07T08:05:20.772Z,21.44
2017-03-07T08:06:01.416Z,21.39
2017-03-07T08:06:42.080Z,21.44
2017-03-07T08:07:22.722Z,21.41
2017-03-07T08:08:03.361Z,21.46
2017-03-07T08:08:44.010Z,21.39
2017-03-07T08:09:24.690Z,21.44
2017-03-07T08:10:05.314Z,21.45
2017-03-07T08:10:45.973Z,21.32
2017-03-07T08:11:26.594Z,21.39
2017-03-07T08:12:07.227Z,21.38
2017-03-07T08:12:50.475Z,21.45
2017-03-07T08:13:31.112Z,21.46
2017-03-07T08:14:11.755Z,21.42
2017-03-07T08:14:52.383Z,21.41
2017-03-07T08:15:33.036Z,21.44
2017-03-07T08:16:13.686Z,21.42
2017-03-07T08:16:54.307Z,21.44
2017-03-07T08:17:34.930Z,21.42
2017-03-07T08:18:15.629Z,21.45
2017-03-07T08:18:56.278Z,21.44
2017-03-07T08:19:36.930Z,21.44
2017-03-07T08:20:17.582Z,21.42
2017-03-07T08:20:58.210Z,21.41
2017-03-07T08:21:38.846Z,21.41
2017-03-07T08:22:19.480Z,21.42
2017-03-07T08:23:00.121Z,21.45
2017-03-07T08:23:40.751Z,21.45
2017-03-07T08:24:21.387Z,21.5
2017-03-07T08:25:02.139Z,21.48
2017-03-07T08:25:42.777Z,21.45
2017-03-07T08:26:23.481Z,21.44
2017-03-07T08:27:04.123Z,21.42
2017-03-07T08:27:44.751Z,21.44
2017-03-07T08:28:25.390Z,21.48
2017-03-07T08:29:06.042Z,21.42
2017-03-07T08:29:46.677Z,21.41
2017-03-07T08:30:27.306Z,21.41
2017-03-07T08:31:07.934Z,21.42
2017-03-07T08:31:48.591Z,21.41
2017-03-07T08:32:29.225Z,21.39
2017-03-07T08:33:09.855Z,21.41
2017-03-07T08:33:50.495Z,21.45
2017-03-07T08:34:31.143Z,21.36
2017-03-07T08:35:11.792Z,21.41
2017-03-07T08:35:52.509Z,21.34
2017-03-07T08:36:33.062Z,21.36
2017-03-07T08:37:13.710Z,21.41
2017-03-07T08:37:54.342Z,21.46
2017-03-07T08:38:34.968Z,21.42
2017-03-07T08:39:15.607Z,21.44
2017-03-07T08:39:56.236Z,21.44
2017-03-07T08:40:36.891Z,21.48
2017-03-07T08:41:17.579Z,21.45
2017-03-07T08:41:58.212Z,21.48
2017-03-07T08:42:38.847Z,21.44
2017-03-07T08:43:19.490Z,21.45
2017-03-07T08:44:00.143Z,21.45
2017-03-07T08:44:40.774Z,21.44
2017-03-07T08:45:21.412Z,21.44
2017-03-07T08:46:02.044Z,21.41